Time;durP1;ratioP1;P1;durP2;ratioP2;P2;SDS_P1;SDS_P2;PMS_P1;PMS_P2;Temp;Humidity;BMP_temperature;BMP_pressure;BME280_temperature;BME280_humidity;BME280_pressure;Samples;Min_cycle;Max_cycle;Signal;HPM_P1;HPM_P2
2021/01/24 00:00:06;;;;;;;8.50;5.17;;;4.20;99.90;;;;;;5017899;28;20270;-76
2021/01/24 00:02:32;;;;;;;8.47;5.03;;;4.20;99.90;;;;;;5036984;28;20192;-76
2021/01/24 00:04:59;;;;;;;10.53;4.20;;;4.10;99.90;;;;;;5040254;28;20208;-75
2021/01/24 00:07:25;;;;;;;5.90;3.63;;;3.90;99.90;;;;;;5017731;28;20211;-75
2021/01/24 00:09:52;;;;;;;7.43;4.20;;;3.90;99.90;;;;;;5026307;28;20301;-76
2021/01/24 00:12:18;;;;;;;6.33;3.20;;;3.80;99.90;;;;;;5015514;28;20234;-75
2021/01/24 00:14:44;;;;;;;4.37;2.90;;;3.80;99.90;;;;;;5035100;28;20203;-76
2021/01/24 00:17:11;;;;;;;7.40;3.60;;;3.90;99.90;;;;;;5032180;28;20316;-75
2021/01/24 00:19:37;;;;;;;6.13;3.17;;;4.00;99.90;;;;;;5030615;28;20683;-76
2021/01/24 00:22:04;;;;;;;5.03;3.07;;;4.10;99.90;;;;;;5036790;28;20196;-75
2021/01/24 00:24:30;;;;;;;5.97;3.53;;;4.10;99.90;;;;;;5025686;28;20192;-76
2021/01/24 00:26:57;;;;;;;8.77;3.50;;;4.20;99.90;;;;;;5037519;28;20203;-74
2021/01/24 00:29:23;;;;;;;6.00;4.03;;;4.20;99.90;;;;;;5038727;28;20262;-75
2021/01/24 00:31:49;;;;;;;7.27;4.30;;;4.10;99.90;;;;;;5011464;28;20215;-75
2021/01/24 00:34:16;;;;;;;7.47;4.13;;;4.10;99.90;;;;;;5040119;28;20239;-75
2021/01/24 00:36:42;;;;;;;6.33;4.20;;;4.10;99.90;;;;;;5035224;28;20631;-76
2021/01/24 00:39:09;;;;;;;7.07;4.40;;;4.20;99.90;;;;;;5039209;28;20646;-76
2021/01/24 00:41:35;;;;;;;5.93;4.10;;;4.20;99.90;;;;;;5048166;28;20195;-75
2021/01/24 00:44:01;;;;;;;7.10;4.27;;;4.20;99.90;;;;;;5034390;28;20298;-76
2021/01/24 00:46:28;;;;;;;7.50;4.40;;;4.30;99.90;;;;;;5038348;28;20695;-75
2021/01/24 00:48:54;;;;;;;5.53;3.87;;;4.30;99.90;;;;;;5048371;28;20207;-75
2021/01/24 00:51:21;;;;;;;8.40;4.93;;;4.40;99.90;;;;;;5046019;28;20348;-75
2021/01/24 00:53:47;;;;;;;6.20;3.93;;;4.50;99.90;;;;;;5025953;28;20203;-74
2021/01/24 00:56:13;;;;;;;6.97;3.83;;;4.60;99.90;;;;;;5027925;28;20249;-75
2021/01/24 00:58:41;;;;;;;6.23;4.13;;;4.60;99.90;;;;;;5041271;28;20204;-77
2021/01/24 01:01:07;;;;;;;8.50;5.10;;;4.60;99.90;;;;;;5020487;28;20200;-76
2021/01/24 01:03:33;;;;;;;7.47;4.67;;;4.60;99.90;;;;;;5024932;28;20346;-75
2021/01/24 01:06:00;;;;;;;10.23;4.60;;;4.50;99.90;;;;;;5027584;28;20193;-75
2021/01/24 01:08:26;;;;;;;8.20;4.27;;;4.40;99.90;;;;;;5037204;28;20265;-75
2021/01/24 01:10:52;;;;;;;9.60;4.57;;;4.60;99.90;;;;;;5034297;28;20220;-75
2021/01/24 01:13:19;;;;;;;8.87;4.30;;;4.60;99.90;;;;;;5014821;28;20251;-75
2021/01/24 01:15:45;;;;;;;7.77;4.97;;;4.70;99.90;;;;;;5035987;28;20276;-75
2021/01/24 01:18:12;;;;;;;11.17;4.87;;;4.70;99.90;;;;;;5056054;28;20357;-76
2021/01/24 01:20:38;;;;;;;6.43;4.43;;;4.70;99.90;;;;;;5036230;28;20208;-78
2021/01/24 01:23:04;;;;;;;7.50;4.57;;;4.80;99.90;;;;;;5016968;28;20196;-77
2021/01/24 01:25:31;;;;;;;10.93;5.27;;;4.70;99.90;;;;;;5032741;28;20253;-78
2021/01/24 01:27:57;;;;;;;12.43;5.60;;;4.50;99.90;;;;;;5012230;28;20204;-78
2021/01/24 01:30:24;;;;;;;7.93;5.07;;;4.60;99.90;;;;;;5035223;28;20315;-77
2021/01/24 01:32:50;;;;;;;7.70;4.97;;;4.70;99.90;;;;;;5010915;28;20216;-77
2021/01/24 01:35:17;;;;;;;10.60;5.10;;;4.70;99.90;;;;;;5023514;28;20204;-77
2021/01/24 01:37:43;;;;;;;10.57;4.87;;;4.70;99.90;;;;;;5041775;28;20758;-76
2021/01/24 01:40:10;;;;;;;7.53;5.53;;;4.70;99.90;;;;;;5043864;28;20593;-76
2021/01/24 01:42:37;;;;;;;8.80;5.43;;;4.70;99.90;;;;;;5040488;28;20534;-76
2021/01/24 01:45:05;;;;;;;9.47;4.90;;;4.70;99.90;;;;;;5043023;28;20287;-76
2021/01/24 01:47:32;;;;;;;7.83;5.17;;;4.70;99.90;;;;;;5046501;28;21539;-78
2021/01/24 01:49:59;;;;;;;9.07;5.43;;;4.70;99.90;;;;;;5024641;28;20664;-76
2021/01/24 01:52:29;;;;;;;8.00;5.43;;;4.60;99.90;;;;;;5044196;28;20346;-77
2021/01/24 01:54:57;;;;;;;11.13;5.30;;;4.60;99.90;;;;;;5043643;28;20281;-76
2021/01/24 01:57:25;;;;;;;10.00;5.07;;;4.60;99.90;;;;;;5040599;28;20221;-78
2021/01/24 01:59:52;;;;;;;9.73;5.70;;;4.50;99.90;;;;;;5027088;28;20583;-77
2021/01/24 02:02:48;;;;;;;12.57;7.13;;;4.50;99.90;;;;;;5022893;28;20294;-76
2021/01/24 02:05:45;;;;;;;11.87;5.63;;;4.60;99.90;;;;;;5044101;28;20654;-77
2021/01/24 02:08:50;;;;;;;11.37;5.57;;;4.70;99.90;;;;;;5043885;28;20230;-78
2021/01/24 02:11:29;;;;;;;10.90;6.03;;;4.60;99.90;;;;;;5023775;28;20243;-78
2021/01/24 02:14:08;;;;;;;10.87;6.20;;;4.70;99.90;;;;;;5035406;28;20227;-78
2021/01/24 02:16:37;;;;;;;8.70;5.03;;;4.60;99.90;;;;;;5039707;28;20269;-78
2021/01/24 02:19:17;;;;;;;11.10;6.20;;;4.50;99.90;;;;;;5030436;28;20269;-78
2021/01/24 02:21:45;;;;;;;10.47;6.13;;;4.60;99.90;;;;;;5040106;28;20199;-78
2021/01/24 02:24:15;;;;;;;9.03;5.43;;;4.50;99.90;;;;;;5022059;28;20550;-78
2021/01/24 02:27:05;;;;;;;9.03;5.53;;;4.40;99.90;;;;;;5037469;28;20224;-79
2021/01/24 02:29:48;;;;;;;9.53;5.23;;;4.50;99.90;;;;;;5035742;28;20213;-79
2021/01/24 02:32:17;;;;;;;9.17;6.00;;;4.60;99.90;;;;;;5038869;28;20207;-78
2021/01/24 02:34:45;;;;;;;9.40;4.60;;;4.50;99.90;;;;;;5023935;28;20315;-79
2021/01/24 02:37:14;;;;;;;7.67;4.97;;;4.50;99.90;;;;;;5060840;28;20345;-79
2021/01/24 02:39:42;;;;;;;9.40;4.20;;;4.50;99.90;;;;;;5025653;28;20594;-79
2021/01/24 02:42:08;;;;;;;8.47;4.80;;;4.50;99.90;;;;;;5036318;28;20230;-78
2021/01/24 02:44:38;;;;;;;7.03;4.13;;;4.50;99.90;;;;;;5024233;28;20262;-78
2021/01/24 02:47:07;;;;;;;7.00;3.37;;;4.60;99.90;;;;;;5019339;28;20299;-78
2021/01/24 02:49:36;;;;;;;8.70;4.00;;;4.60;99.90;;;;;;5062594;28;20212;-78
2021/01/24 02:52:05;;;;;;;10.47;4.37;;;4.60;99.90;;;;;;5017451;28;20232;-77
2021/01/24 02:54:32;;;;;;;7.67;4.23;;;4.40;99.90;;;;;;5040684;28;20209;-78
2021/01/24 02:56:59;;;;;;;7.93;3.80;;;4.40;99.90;;;;;;5021682;28;20385;-78
2021/01/24 02:59:25;;;;;;;6.87;3.40;;;4.40;99.90;;;;;;5033500;28;20200;-78
2021/01/24 03:01:52;;;;;;;10.87;3.80;;;4.30;99.90;;;;;;5018274;28;20300;-78
2021/01/24 03:04:18;;;;;;;9.53;3.70;;;4.20;99.90;;;;;;5019804;28;20220;-78
2021/01/24 03:06:45;;;;;;;6.80;3.73;;;4.30;99.90;;;;;;5034441;28;20560;-78
2021/01/24 03:09:12;;;;;;;5.67;3.70;;;4.30;99.90;;;;;;5038686;28;20299;-78
2021/01/24 03:11:42;;;;;;;9.63;3.30;;;4.30;99.90;;;;;;5044045;28;20205;-77
2021/01/24 03:14:21;;;;;;;5.10;3.43;;;4.20;99.90;;;;;;5037383;28;20649;-77
2021/01/24 03:16:49;;;;;;;6.13;2.90;;;4.10;99.90;;;;;;5037339;28;20305;-77
2021/01/24 03:19:21;;;;;;;6.97;4.37;;;4.20;99.90;;;;;;5038927;28;20271;-77
2021/01/24 03:21:49;;;;;;;8.70;4.47;;;4.30;99.90;;;;;;5023809;28;20262;-78
2021/01/24 03:24:18;;;;;;;8.70;5.10;;;4.10;99.90;;;;;;5017990;28;20196;-77
2021/01/24 03:26:45;;;;;;;9.70;5.03;;;4.10;99.90;;;;;;5034010;28;20222;-77
2021/01/24 03:29:12;;;;;;;9.33;4.57;;;4.20;99.90;;;;;;5024075;28;20622;-77
2021/01/24 03:31:43;;;;;;;10.10;5.77;;;4.30;99.90;;;;;;5034517;28;20505;-76
2021/01/24 03:34:20;;;;;;;11.53;4.87;;;4.40;99.90;;;;;;5036208;28;20287;-77
2021/01/24 03:36:49;;;;;;;7.20;4.27;;;4.30;99.90;;;;;;5039853;28;20281;-77
2021/01/24 03:39:15;;;;;;;10.57;4.40;;;4.20;99.90;;;;;;5025129;28;20740;-77
2021/01/24 03:41:43;;;;;;;7.93;3.53;;;4.20;99.90;;;;;;5023593;28;20203;-77
2021/01/24 03:44:10;;;;;;;8.67;3.93;;;4.20;99.90;;;;;;5036540;28;20208;-77
2021/01/24 03:46:37;;;;;;;8.30;3.03;;;4.30;99.90;;;;;;5038237;28;20192;-77
2021/01/24 03:49:06;;;;;;;7.97;3.30;;;4.30;99.90;;;;;;5037124;28;20215;-78
2021/01/24 03:51:42;;;;;;;6.00;2.73;;;4.40;99.90;;;;;;5037599;28;20242;-78
2021/01/24 03:54:08;;;;;;;9.87;3.50;;;4.40;99.90;;;;;;5021007;28;20200;-78
2021/01/24 03:56:35;;;;;;;8.33;4.00;;;4.50;99.90;;;;;;5024281;28;20265;-78
2021/01/24 03:59:01;;;;;;;8.20;3.67;;;4.40;99.90;;;;;;5025107;28;20208;-77
2021/01/24 04:01:29;;;;;;;12.10;4.43;;;4.40;99.90;;;;;;5058927;28;20223;-76
2021/01/24 04:03:56;;;;;;;8.93;3.90;;;4.40;99.90;;;;;;5037018;28;20569;-77
2021/01/24 04:06:23;;;;;;;6.93;3.73;;;4.20;99.90;;;;;;5039573;28;20269;-77
2021/01/24 04:08:50;;;;;;;7.33;3.97;;;4.30;99.90;;;;;;5044640;28;20199;-77
2021/01/24 04:11:18;;;;;;;8.80;4.33;;;4.30;99.90;;;;;;5028175;28;20223;-78
2021/01/24 04:13:44;;;;;;;6.90;4.57;;;4.30;99.90;;;;;;5041398;28;20269;-77
2021/01/24 04:16:11;;;;;;;9.27;4.33;;;4.20;99.90;;;;;;5039252;28;20204;-78
2021/01/24 04:18:39;;;;;;;8.20;4.37;;;4.20;99.90;;;;;;5016602;28;20777;-77
2021/01/24 04:21:06;;;;;;;6.00;3.63;;;4.20;99.90;;;;;;5031730;28;20239;-78
2021/01/24 04:23:32;;;;;;;8.53;4.20;;;4.20;99.90;;;;;;5041943;28;20558;-77
2021/01/24 04:25:59;;;;;;;7.10;4.20;;;4.10;99.90;;;;;;5041185;28;20307;-77
2021/01/24 04:28:25;;;;;;;9.30;4.50;;;4.10;99.90;;;;;;5019584;28;20601;-77
2021/01/24 04:30:52;;;;;;;6.43;3.80;;;4.10;99.90;;;;;;5043262;28;20249;-78
2021/01/24 04:33:19;;;;;;;7.60;3.60;;;4.10;99.90;;;;;;5039834;28;20203;-78
2021/01/24 04:35:45;;;;;;;6.73;3.70;;;4.00;99.90;;;;;;5020939;28;20606;-78
2021/01/24 04:38:13;;;;;;;6.73;4.07;;;4.10;99.90;;;;;;5037122;28;20648;-77
2021/01/24 04:40:39;;;;;;;6.70;3.50;;;4.00;99.90;;;;;;5026560;28;20299;-77
2021/01/24 04:43:06;;;;;;;7.47;3.57;;;4.00;99.90;;;;;;5015333;28;20208;-77
2021/01/24 04:45:32;;;;;;;5.33;3.53;;;4.00;99.90;;;;;;5010695;28;20203;-77
2021/01/24 04:47:59;;;;;;;3.97;2.50;;;4.10;99.90;;;;;;5042404;28;20212;-77
2021/01/24 04:50:26;;;;;;;4.83;3.23;;;4.00;99.90;;;;;;5022825;28;20709;-78
2021/01/24 04:52:53;;;;;;;6.33;3.33;;;4.10;99.90;;;;;;5027268;28;20744;-78
2021/01/24 04:55:20;;;;;;;3.97;2.70;;;4.10;99.90;;;;;;5045894;28;20258;-78
2021/01/24 04:57:47;;;;;;;3.03;2.07;;;4.10;99.90;;;;;;5037393;28;20281;-77
2021/01/24 05:00:13;;;;;;;5.67;2.17;;;3.90;99.90;;;;;;5019830;28;20291;-78
2021/01/24 05:02:40;;;;;;;2.90;1.47;;;4.00;99.90;;;;;;5039770;28;20212;-78
2021/01/24 05:05:08;;;;;;;2.73;1.47;;;3.90;99.90;;;;;;5045199;28;20202;-78
2021/01/24 05:07:35;;;;;;;2.40;1.10;;;3.90;99.90;;;;;;5025952;28;20234;-78
2021/01/24 05:10:03;;;;;;;2.57;0.90;;;3.70;99.90;;;;;;5054747;28;20196;-78
2021/01/24 05:12:29;;;;;;;4.23;1.00;;;3.60;99.90;;;;;;5055952;28;20210;-77
2021/01/24 05:14:59;;;;;;;1.13;0.60;;;3.50;99.90;;;;;;5023270;28;20339;-77
2021/01/24 05:17:25;;;;;;;0.97;0.63;;;3.60;99.90;;;;;;5026686;28;20266;-78
2021/01/24 05:19:53;;;;;;;1.13;0.60;;;3.60;99.90;;;;;;5016328;28;20210;-78
2021/01/24 05:22:20;;;;;;;0.73;0.60;;;3.50;99.90;;;;;;5036305;28;20299;-78
2021/01/24 05:24:46;;;;;;;0.60;0.50;;;3.50;99.90;;;;;;5036024;28;20224;-78
2021/01/24 05:27:13;;;;;;;0.47;0.30;;;3.50;99.90;;;;;;5018198;28;20703;-78
2021/01/24 05:29:42;;;;;;;0.77;0.30;;;3.30;99.90;;;;;;5024019;28;20295;-78
2021/01/24 05:32:10;;;;;;;1.17;0.37;;;3.20;99.90;;;;;;5041716;28;20207;-77
2021/01/24 05:34:37;;;;;;;0.33;0.20;;;3.20;99.90;;;;;;5026392;28;20697;-78
2021/01/24 05:37:03;;;;;;;0.57;0.40;;;3.30;99.90;;;;;;5038752;28;20265;-78
2021/01/24 05:39:32;;;;;;;0.27;0.17;;;3.30;99.90;;;;;;5037835;28;20298;-78
2021/01/24 05:42:00;;;;;;;0.40;0.20;;;3.40;99.90;;;;;;5033423;28;20203;-77
2021/01/24 05:44:27;;;;;;;0.20;0.20;;;3.40;99.90;;;;;;5027957;28;20194;-78
2021/01/24 05:47:03;;;;;;;2.53;0.50;;;3.40;99.90;;;;;;5023249;28;20202;-78
2021/01/24 05:49:32;;;;;;;0.60;0.40;;;3.40;99.90;;;;;;5037562;28;20291;-77
2021/01/24 05:52:00;;;;;;;0.30;0.20;;;3.30;99.90;;;;;;5040642;28;20268;-77
2021/01/24 05:54:41;;;;;;;0.33;0.30;;;3.40;99.90;;;;;;5039768;28;20210;-77
2021/01/24 05:57:10;;;;;;;0.50;0.40;;;3.50;99.90;;;;;;5037812;28;20269;-77
2021/01/24 05:59:58;;;;;;;0.30;0.30;;;3.40;99.90;;;;;;5033326;28;20214;-77
2021/01/24 06:02:27;;;;;;;0.27;0.17;;;3.50;99.90;;;;;;5024468;28;20207;-76
2021/01/24 06:04:55;;;;;;;0.30;0.30;;;3.40;99.90;;;;;;5041326;28;20239;-76
2021/01/24 06:07:22;;;;;;;1.60;0.87;;;3.50;99.90;;;;;;5025071;28;20207;-76
2021/01/24 06:09:49;;;;;;;0.80;0.80;;;3.40;99.90;;;;;;5044915;28;20339;-75
2021/01/24 06:12:16;;;;;;;0.80;0.70;;;3.30;99.90;;;;;;5041541;28;20278;-75
2021/01/24 06:14:48;;;;;;;3.17;0.70;;;3.40;99.90;;;;;;5043549;28;20207;-76
2021/01/24 06:17:28;;;;;;;1.77;0.40;;;3.40;99.90;;;;;;5021926;28;20219;-78
2021/01/24 06:19:59;;;;;;;0.73;0.30;;;3.30;99.90;;;;;;5040615;28;20224;-78
2021/01/24 06:22:44;;;;;;;1.27;0.37;;;3.30;99.90;;;;;;5031293;28;20207;-77
2021/01/24 06:25:22;;;;;;;2.07;0.30;;;3.10;99.90;;;;;;5027722;28;20204;-78
2021/01/24 06:28:10;;;;;;;0.40;0.30;;;3.10;99.90;;;;;;5036389;28;20569;-78
2021/01/24 06:30:38;;;;;;;0.77;0.47;;;3.10;99.90;;;;;;5041260;28;20658;-78
2021/01/24 06:33:19;;;;;;;0.33;0.20;;;3.00;99.90;;;;;;5011643;28;20270;-79
2021/01/24 06:35:51;;;;;;;0.40;0.33;;;3.10;99.90;;;;;;5040363;28;20219;-77
2021/01/24 06:38:33;;;;;;;0.90;0.30;;;3.20;99.90;;;;;;5038037;28;20300;-78
2021/01/24 06:41:01;;;;;;;0.73;0.40;;;3.20;99.90;;;;;;5035219;28;20234;-79
2021/01/24 06:43:44;;;;;;;0.40;0.40;;;3.00;99.90;;;;;;5019750;28;20290;-77
2021/01/24 06:46:35;;;;;;;0.37;0.37;;;3.00;99.90;;;;;;5036369;28;20280;-77
2021/01/24 06:49:01;;;;;;;0.60;0.47;;;2.90;99.90;;;;;;5031542;28;20262;-77
2021/01/24 06:51:42;;;;;;;1.07;0.57;;;3.00;99.90;;;;;;5031802;28;20250;-78
2021/01/24 06:54:28;;;;;;;0.70;0.50;;;2.80;99.90;;;;;;5021247;28;20199;-78
2021/01/24 06:57:09;;;;;;;0.40;0.30;;;2.80;99.90;;;;;;5037774;28;20210;-77
2021/01/24 06:59:35;;;;;;;0.80;0.50;;;2.80;99.90;;;;;;5029504;28;20196;-78
2021/01/24 07:02:25;;;;;;;0.90;0.60;;;2.70;99.90;;;;;;5021053;28;20200;-78
2021/01/24 07:05:24;;;;;;;1.30;0.60;;;2.90;99.90;;;;;;5036579;28;20227;-76
2021/01/24 07:07:53;;;;;;;1.47;1.00;;;3.00;99.90;;;;;;5041516;28;20216;-77
2021/01/24 07:10:37;;;;;;;1.40;1.10;;;2.90;99.90;;;;;;5039542;28;20208;-76
2021/01/24 07:13:25;;;;;;;2.37;1.67;;;3.00;99.90;;;;;;5032186;28;20211;-76
2021/01/24 07:15:57;;;;;;;2.53;1.40;;;2.70;99.90;;;;;;5035579;28;20288;-77
2021/01/24 07:18:24;;;;;;;1.73;1.37;;;2.70;99.90;;;;;;5025011;28;20231;-78
2021/01/24 07:20:53;;;;;;;2.93;1.70;;;2.80;99.90;;;;;;5022326;28;20200;-77
2021/01/24 07:23:19;;;;;;;4.37;1.50;;;2.80;99.90;;;;;;5023526;28;20756;-78
2021/01/24 07:25:46;;;;;;;0.97;0.93;;;2.80;99.90;;;;;;5022783;28;20279;-78
2021/01/24 07:28:14;;;;;;;2.27;1.40;;;2.50;99.90;;;;;;5045177;28;20609;-77
2021/01/24 07:30:41;;;;;;;1.73;1.13;;;2.50;99.90;;;;;;5040943;28;20256;-78
2021/01/24 07:33:08;;;;;;;2.63;1.30;;;2.30;99.90;;;;;;5043123;28;20257;-78
2021/01/24 07:35:36;;;;;;;4.10;1.50;;;2.40;99.90;;;;;;5043506;28;20689;-78
2021/01/24 07:38:04;;;;;;;2.60;1.80;;;2.30;99.90;;;;;;5018584;28;20261;-78
2021/01/24 07:40:31;;;;;;;1.90;1.37;;;2.30;99.90;;;;;;5027252;28;20254;-77
2021/01/24 07:42:57;;;;;;;2.93;1.50;;;2.30;99.90;;;;;;5023441;28;20203;-78
2021/01/24 07:45:25;;;;;;;3.70;1.87;;;2.40;99.90;;;;;;5027763;28;20528;-78
2021/01/24 07:47:54;;;;;;;3.27;1.40;;;2.50;99.90;;;;;;5046989;28;20241;-78
2021/01/24 07:50:21;;;;;;;1.70;1.40;;;2.40;99.90;;;;;;5042681;28;20210;-77
2021/01/24 07:52:50;;;;;;;2.60;1.60;;;2.30;99.90;;;;;;5029544;28;20330;-80
2021/01/24 07:55:17;;;;;;;1.90;1.60;;;2.30;99.90;;;;;;5039800;28;20210;-78
2021/01/24 07:57:43;;;;;;;2.07;1.73;;;2.20;99.90;;;;;;5040339;28;20640;-77
2021/01/24 08:00:12;;;;;;;2.03;1.80;;;2.30;99.90;;;;;;5026373;28;20283;-78
2021/01/24 08:02:39;;;;;;;2.13;1.93;;;2.30;99.90;;;;;;5048240;28;20203;-78
2021/01/24 08:05:07;;;;;;;3.70;2.03;;;2.30;99.90;;;;;;5037100;28;20673;-78
2021/01/24 08:07:34;;;;;;;2.27;2.07;;;2.30;99.90;;;;;;5024097;28;20305;-77
2021/01/24 08:10:00;;;;;;;2.17;1.80;;;2.50;99.90;;;;;;5042259;28;20342;-78
2021/01/24 08:12:27;;;;;;;3.13;2.30;;;2.20;99.90;;;;;;5024361;28;20273;-78
2021/01/24 08:14:53;;;;;;;2.97;2.60;;;2.10;99.90;;;;;;5041284;28;20348;-78
2021/01/24 08:17:22;;;;;;;3.38;2.53;;;2.30;99.90;;;;;;5028991;28;20571;-76
2021/01/24 08:19:50;;;;;;;3.07;1.80;;;2.20;99.90;;;;;;5043463;28;20285;-75
2021/01/24 08:22:16;;;;;;;2.27;1.97;;;2.30;99.90;;;;;;5042387;28;20287;-76
2021/01/24 08:24:43;;;;;;;2.43;1.83;;;2.30;99.90;;;;;;5016152;28;20256;-75
2021/01/24 08:27:10;;;;;;;2.67;2.10;;;2.30;99.90;;;;;;5040037;28;20211;-75
2021/01/24 08:29:37;;;;;;;2.57;1.90;;;2.40;99.90;;;;;;5026502;28;20381;-76
2021/01/24 08:32:05;;;;;;;6.20;2.23;;;2.40;99.90;;;;;;5039815;28;20236;-75
2021/01/24 08:34:33;;;;;;;3.57;1.90;;;2.40;99.90;;;;;;5040211;28;20289;-75
2021/01/24 08:37:00;;;;;;;3.17;1.97;;;2.50;99.90;;;;;;5030132;28;20261;-76
2021/01/24 08:39:28;;;;;;;3.30;2.13;;;2.60;99.90;;;;;;5027519;28;20477;-76
2021/01/24 08:41:56;;;;;;;1.67;1.37;;;2.60;99.90;;;;;;5058737;28;20564;-75
2021/01/24 08:44:22;;;;;;;3.27;1.83;;;2.70;99.90;;;;;;5043455;28;20241;-76
2021/01/24 08:46:53;;;;;;;2.40;1.70;;;2.60;99.90;;;;;;5027115;28;20200;-76
2021/01/24 08:49:25;;;;;;;2.23;1.93;;;2.70;99.90;;;;;;5044588;28;20232;-75
2021/01/24 08:51:52;;;;;;;2.53;1.73;;;3.00;99.90;;;;;;5042834;28;20297;-75
2021/01/24 08:54:23;;;;;;;3.67;2.10;;;3.00;99.90;;;;;;5021150;28;20657;-75
2021/01/24 08:56:50;;;;;;;2.43;1.57;;;3.30;99.90;;;;;;5043266;28;20211;-77
2021/01/24 08:59:23;;;;;;;4.60;2.60;;;3.50;99.90;;;;;;5045605;28;20370;-77
2021/01/24 09:01:51;;;;;;;3.87;2.10;;;3.40;99.90;;;;;;5040724;28;20252;-74
2021/01/24 09:04:23;;;;;;;2.07;1.40;;;3.40;99.90;;;;;;5055505;28;20287;-75
2021/01/24 09:07:19;;;;;;;4.43;1.83;;;3.60;99.90;;;;;;5037776;28;20207;-76
2021/01/24 09:09:47;;;;;;;3.17;1.70;;;3.60;99.90;;;;;;5037089;28;20207;-76
2021/01/24 09:12:21;;;;;;;4.73;2.33;;;3.80;99.90;;;;;;5040919;28;20272;-77
2021/01/24 09:14:48;;;;;;;2.03;1.80;;;3.80;99.90;;;;;;5009873;28;20229;-76
2021/01/24 09:17:21;;;;;;;3.60;2.10;;;3.80;99.90;;;;;;5041809;28;20308;-76
2021/01/24 09:19:48;;;;;;;4.53;2.40;;;3.80;99.90;;;;;;5039814;28;20211;-78
2021/01/24 09:22:16;;;;;;;2.37;1.70;;;3.60;99.90;;;;;;5042639;28;20211;-77
2021/01/24 09:24:44;;;;;;;4.73;2.13;;;3.50;99.90;;;;;;5042746;28;20306;-79
2021/01/24 09:27:12;;;;;;;4.63;2.20;;;3.80;99.90;;;;;;5064972;28;20219;-78
2021/01/24 09:29:40;;;;;;;5.97;1.90;;;4.20;99.90;;;;;;5035492;28;20206;-78
2021/01/24 09:32:07;;;;;;;4.00;2.67;;;4.40;99.90;;;;;;5024282;28;20475;-75
2021/01/24 09:34:35;;;;;;;5.03;2.20;;;4.50;99.90;;;;;;5018928;28;20888;-75
2021/01/24 09:37:03;;;;;;;3.43;1.90;;;5.80;99.90;;;;;;5014142;28;20251;-76
2021/01/24 09:39:29;;;;;;;4.10;2.13;;;5.80;99.90;;;;;;5036275;28;20295;-75
2021/01/24 09:41:56;;;;;;;3.70;2.03;;;6.60;99.90;;;;;;5020138;28;20204;-76
2021/01/24 09:44:22;;;;;;;5.47;1.80;;;6.30;99.90;;;;;;5020366;28;20215;-75
2021/01/24 09:46:49;;;;;;;3.97;2.10;;;6.40;99.90;;;;;;5014687;28;20227;-74
2021/01/24 09:49:15;;;;;;;5.50;2.23;;;6.50;99.90;;;;;;5050859;28;20246;-75
2021/01/24 09:51:42;;;;;;;2.63;1.83;;;6.60;99.90;;;;;;5047048;28;20526;-74
2021/01/24 09:54:08;;;;;;;4.10;1.97;;;6.20;99.90;;;;;;5014979;28;20307;-74
2021/01/24 09:56:35;;;;;;;4.30;2.10;;;6.40;99.90;;;;;;5016720;28;20254;-74
2021/01/24 09:59:01;;;;;;;2.90;1.77;;;6.40;99.90;;;;;;5012680;28;20232;-75
2021/01/24 10:01:27;;;;;;;3.27;2.20;;;7.00;99.90;;;;;;5034672;28;20204;-74
2021/01/24 10:03:54;;;;;;;6.37;1.97;;;6.80;99.90;;;;;;5036473;28;20195;-74
2021/01/24 10:06:21;;;;;;;2.97;1.80;;;6.30;99.90;;;;;;5004100;28;20297;-75
2021/01/24 10:08:48;;;;;;;4.23;2.30;;;6.90;99.90;;;;;;5020112;28;20275;-74
2021/01/24 10:11:14;;;;;;;5.40;2.57;;;7.80;99.90;;;;;;5033377;28;20318;-74
2021/01/24 10:13:41;;;;;;;5.13;1.90;;;7.60;99.90;;;;;;5036314;28;20919;-74
2021/01/24 10:16:08;;;;;;;3.43;1.77;;;7.00;99.90;;;;;;5032215;28;20841;-74
2021/01/24 10:18:34;;;;;;;4.80;2.17;;;7.20;99.90;;;;;;5032135;28;20224;-72
2021/01/24 10:21:01;;;;;;;3.60;2.10;;;7.40;99.90;;;;;;5018052;28;20307;-74
2021/01/24 10:23:27;;;;;;;5.33;2.20;;;7.10;99.90;;;;;;5018452;28;20644;-74
2021/01/24 10:25:56;;;;;;;4.57;2.20;;;7.80;99.90;;;;;;5034705;28;20813;-74
2021/01/24 10:28:26;;;;;;;2.73;2.00;;;7.30;99.90;;;;;;5031069;28;20203;-75
2021/01/24 10:30:53;;;;;;;4.67;2.57;;;7.30;99.90;;;;;;5028740;28;20348;-75
2021/01/24 10:33:21;;;;;;;5.47;2.60;;;6.90;99.90;;;;;;5034188;28;20225;-74
2021/01/24 10:35:48;;;;;;;3.73;2.23;;;7.00;99.90;;;;;;5021275;28;20273;-74
2021/01/24 10:38:16;;;;;;;5.13;2.20;;;7.20;99.90;;;;;;5034457;28;20273;-73
2021/01/24 10:40:43;;;;;;;4.07;2.50;;;7.50;99.90;;;;;;5017383;28;20259;-74
2021/01/24 10:43:10;;;;;;;3.67;2.40;;;7.30;99.90;;;;;;5030574;28;20822;-73
2021/01/24 10:45:37;;;;;;;3.53;2.37;;;7.20;99.90;;;;;;5011603;28;20310;-73
2021/01/24 10:48:06;;;;;;;3.33;1.90;;;7.60;99.90;;;;;;5019855;28;20284;-74
2021/01/24 10:50:35;;;;;;;4.10;1.87;;;7.30;99.90;;;;;;5033897;28;20225;-74
2021/01/24 10:53:03;;;;;;;5.10;1.80;;;7.80;99.90;;;;;;5020621;28;20287;-74
2021/01/24 10:55:30;;;;;;;3.60;1.80;;;8.20;99.90;;;;;;5035978;28;20266;-74
2021/01/24 10:57:56;;;;;;;3.73;2.50;;;8.40;99.90;;;;;;5024481;28;20355;-74
2021/01/24 11:00:23;;;;;;;4.10;1.80;;;7.30;99.90;;;;;;5026283;28;20284;-74
2021/01/24 11:02:50;;;;;;;4.37;2.00;;;7.80;99.90;;;;;;5044628;28;20767;-74
2021/01/24 11:05:16;;;;;;;5.40;1.97;;;7.20;99.90;;;;;;5019036;28;20207;-74
2021/01/24 11:07:42;;;;;;;7.73;2.20;;;7.50;99.90;;;;;;5029780;28;20319;-74
2021/01/24 11:10:10;;;;;;;6.17;2.20;;;8.40;99.90;;;;;;5018258;28;21413;-74
2021/01/24 11:12:36;;;;;;;4.40;2.17;;;8.20;99.90;;;;;;5024398;28;20325;-73
2021/01/24 11:15:03;;;;;;;4.87;2.03;;;7.80;99.90;;;;;;5022873;28;20205;-74
2021/01/24 11:17:30;;;;;;;2.73;1.90;;;7.80;99.90;;;;;;5033722;28;20221;-74
2021/01/24 11:19:57;;;;;;;4.23;2.40;;;8.30;99.90;;;;;;5028166;28;20209;-73
2021/01/24 11:22:24;;;;;;;4.47;2.00;;;8.50;99.90;;;;;;5033397;28;20215;-73
2021/01/24 11:24:51;;;;;;;6.90;1.93;;;8.10;99.90;;;;;;5032023;28;20671;-73
2021/01/24 11:27:17;;;;;;;2.93;2.17;;;7.80;99.90;;;;;;5040627;28;20564;-74
2021/01/24 11:29:44;;;;;;;3.60;2.00;;;7.30;99.90;;;;;;5032368;28;20257;-74
2021/01/24 11:32:10;;;;;;;9.13;2.00;;;7.40;99.90;;;;;;5028098;28;20295;-73
2021/01/24 11:34:38;;;;;;;3.67;2.00;;;7.40;99.90;;;;;;5033603;28;20236;-73
2021/01/24 11:37:05;;;;;;;2.90;2.20;;;8.10;99.90;;;;;;5033487;28;20223;-74
2021/01/24 11:39:32;;;;;;;6.38;2.42;;;8.70;99.90;;;;;;5019223;28;20583;-76
2021/01/24 11:41:58;;;;;;;3.50;1.63;;;8.50;99.90;;;;;;5019452;28;20208;-76
2021/01/24 11:44:25;;;;;;;7.27;2.03;;;7.90;99.90;;;;;;5032282;28;20196;-76
2021/01/24 11:46:52;;;;;;;8.33;2.27;;;8.40;99.90;;;;;;5037183;28;20264;-76
2021/01/24 11:49:19;;;;;;;3.60;2.07;;;8.80;99.90;;;;;;5030875;28;20614;-76
2021/01/24 11:51:47;;;;;;;6.97;2.40;;;8.20;99.90;;;;;;5033069;28;20239;-76
2021/01/24 11:54:13;;;;;;;4.63;1.80;;;8.10;99.90;;;;;;5036662;28;20585;-76
2021/01/24 11:56:42;;;;;;;6.13;2.37;;;9.00;99.90;;;;;;5033807;28;20200;-75
2021/01/24 11:59:10;;;;;;;5.53;1.97;;;9.70;99.90;;;;;;5037491;28;20224;-76
2021/01/24 12:01:37;;;;;;;4.80;2.03;;;9.00;99.90;;;;;;5035938;28;20235;-75
2021/01/24 12:04:03;;;;;;;3.30;1.80;;;8.80;99.90;;;;;;5036778;28;20209;-76
2021/01/24 12:06:30;;;;;;;4.53;1.80;;;9.20;99.90;;;;;;5034126;28;20215;-77
2021/01/24 12:08:56;;;;;;;5.87;2.23;;;9.10;99.90;;;;;;5034078;28;20206;-76
2021/01/24 12:11:22;;;;;;;4.80;2.27;;;8.20;99.90;;;;;;5031936;28;20282;-76
2021/01/24 12:13:49;;;;;;;3.33;2.27;;;8.60;99.90;;;;;;5038622;28;20236;-75
2021/01/24 12:16:15;;;;;;;7.03;1.80;;;8.40;99.90;;;;;;5037708;28;20655;-76
2021/01/24 12:18:42;;;;;;;4.50;1.97;;;8.20;99.90;;;;;;5041190;28;20324;-75
2021/01/24 12:21:09;;;;;;;5.50;2.10;;;7.50;99.90;;;;;;5022050;28;20243;-75
2021/01/24 12:23:35;;;;;;;5.83;1.63;;;8.10;99.90;;;;;;5039108;28;20254;-76
2021/01/24 12:26:01;;;;;;;6.60;2.17;;;8.20;99.90;;;;;;5037163;28;20227;-76
2021/01/24 12:28:28;;;;;;;5.77;1.90;;;8.40;99.90;;;;;;5043286;28;20267;-76
2021/01/24 12:30:54;;;;;;;4.90;2.10;;;8.60;99.90;;;;;;5036097;28;20558;-76
2021/01/24 12:33:20;;;;;;;3.87;1.83;;;9.00;99.90;;;;;;5038033;28;20214;-75
2021/01/24 12:35:47;;;;;;;4.13;2.03;;;9.50;99.90;;;;;;5056150;28;20284;-76
2021/01/24 12:38:13;;;;;;;4.13;2.00;;;9.70;99.90;;;;;;5039217;28;20294;-76
2021/01/24 12:40:39;;;;;;;5.77;2.53;;;8.40;99.90;;;;;;5038882;28;20320;-76
2021/01/24 12:43:06;;;;;;;8.00;2.07;;;7.50;99.90;;;;;;5009084;28;20618;-75
2021/01/24 12:45:32;;;;;;;4.13;2.53;;;7.30;99.90;;;;;;5037906;28;20264;-76
2021/01/24 12:47:58;;;;;;;3.70;1.97;;;7.60;99.90;;;;;;5022674;28;20199;-76
2021/01/24 12:50:26;;;;;;;5.10;2.30;;;8.00;99.90;;;;;;5046225;28;20210;-76
2021/01/24 12:52:54;;;;;;;5.43;2.50;;;8.10;99.90;;;;;;5049451;28;20318;-76
2021/01/24 12:55:20;;;;;;;6.10;2.30;;;7.40;99.90;;;;;;5038136;28;20201;-76
2021/01/24 12:57:46;;;;;;;9.13;2.87;;;6.60;99.90;;;;;;5021707;28;20220;-76
2021/01/24 13:00:13;;;;;;;7.23;2.30;;;6.50;99.90;;;;;;5034967;28;20205;-77
2021/01/24 13:02:40;;;;;;;3.33;2.57;;;6.20;99.90;;;;;;5050990;28;20610;-76